createdAt,value
2023-04-26T00:00:35.276Z,6.100
2023-04-26T00:01:35.449Z,6.100
2023-04-26T00:02:35.880Z,5.800
2023-04-26T00:03:36.001Z,6.100
2023-04-26T00:04:37.018Z,5.800
2023-04-26T00:06:35.096Z,5.800
2023-04-26T00:07:35.221Z,5.800
2023-04-26T00:08:35.499Z,5.600
2023-04-26T00:09:35.637Z,5.500
2023-04-26T00:11:34.995Z,6.100
2023-04-26T00:12:35.174Z,5.900
2023-04-26T00:13:35.297Z,5.900
2023-04-26T00:14:35.459Z,5.700
2023-04-26T00:15:35.672Z,5.400
2023-04-26T00:16:34.965Z,5.800
2023-04-26T00:17:35.383Z,5.800
2023-04-26T00:18:35.840Z,5.800
2023-04-26T00:19:35.013Z,5.900
2023-04-26T00:20:35.148Z,5.700
2023-04-26T00:21:35.275Z,5.500
2023-04-26T00:22:35.896Z,5.900
2023-04-26T00:23:35.118Z,5.700
2023-04-26T00:24:35.297Z,5.800
2023-04-26T00:25:35.526Z,5.700
2023-04-26T00:26:35.660Z,5.900
2023-04-26T00:27:35.793Z,5.800
2023-04-26T00:28:34.972Z,5.600
2023-04-26T00:29:35.099Z,5.500
2023-04-26T00:30:35.317Z,6.000
2023-04-26T00:31:35.965Z,5.900
2023-04-26T00:32:35.451Z,5.800
2023-04-26T00:33:35.893Z,5.800
2023-04-26T00:34:35.045Z,5.200
2023-04-26T00:35:35.224Z,5.900
2023-04-26T00:36:35.432Z,5.600
2023-04-26T00:37:35.784Z,5.900
2023-04-26T00:38:34.951Z,5.400
2023-04-26T00:39:35.123Z,5.800
2023-04-26T00:40:35.310Z,6.300
2023-04-26T00:41:35.519Z,6.000
2023-04-26T00:42:35.632Z,5.600
2023-04-26T00:43:34.860Z,6.200
2023-04-26T00:44:34.944Z,6.300
2023-04-26T00:45:35.142Z,5.900
2023-04-26T00:46:36.072Z,6.700
2023-04-26T00:47:35.212Z,6.700
2023-04-26T00:48:35.617Z,6.300
2023-04-26T00:49:35.793Z,6.900
2023-04-26T00:50:35.032Z,6.600
2023-04-26T00:51:35.202Z,6.600
2023-04-26T00:52:35.290Z,6.900
2023-04-26T00:53:35.576Z,7.000
2023-04-26T00:54:35.836Z,6.900
2023-04-26T00:55:35.086Z,6.700
2023-04-26T00:56:35.491Z,6.900
2023-04-26T00:57:35.643Z,6.500
2023-04-26T00:58:34.817Z,6.400
2023-04-26T00:59:35.021Z,6.200
2023-04-26T01:00:35.472Z,7.000
2023-04-26T01:01:36.037Z,7.100
2023-04-26T01:02:35.638Z,7.100
2023-04-26T01:03:35.458Z,6.600
2023-04-26T01:04:36.018Z,7.000
2023-04-26T01:05:35.377Z,6.400
2023-04-26T01:06:35.614Z,6.800
2023-04-26T01:07:34.948Z,6.800
2023-04-26T01:08:35.439Z,7.000
2023-04-26T01:09:35.586Z,7.100
2023-04-26T01:10:35.794Z,7.000
2023-04-26T01:12:35.072Z,6.200
2023-04-26T01:13:35.172Z,7.600
2023-04-26T01:14:35.351Z,7.300
2023-04-26T01:15:35.514Z,7.300
2023-04-26T01:16:35.956Z,7.100
2023-04-26T01:17:35.402Z,6.400
2023-04-26T01:18:35.747Z,7.000
2023-04-26T01:19:34.844Z,7.800
2023-04-26T01:20:35.029Z,7.000
2023-04-26T01:21:36.694Z,6.400
2023-04-26T01:22:34.755Z,6.900
2023-04-26T01:23:34.977Z,6.900
2023-04-26T01:24:35.136Z,6.900
2023-04-26T01:25:35.284Z,7.000
2023-04-26T01:26:35.422Z,7.400
2023-04-26T01:27:35.641Z,7.500
2023-04-26T01:28:34.935Z,6.700
2023-04-26T01:29:35.074Z,7.100
2023-04-26T01:30:35.272Z,7.400
2023-04-26T01:31:35.691Z,7.200
2023-04-26T01:32:34.972Z,7.500
2023-04-26T01:33:35.318Z,6.800
2023-04-26T01:34:35.518Z,7.200
2023-04-26T01:35:35.814Z,6.900
2023-04-26T01:36:35.005Z,7.600
2023-04-26T01:37:35.325Z,6.800
2023-04-26T01:38:35.537Z,7.400
2023-04-26T01:39:35.797Z,7.500
2023-04-26T01:40:34.997Z,7.400
2023-04-26T01:41:35.203Z,7.000
2023-04-26T01:42:35.542Z,7.900
2023-04-26T01:43:35.793Z,7.500
2023-04-26T01:44:34.880Z,7.100
2023-04-26T01:45:35.089Z,7.000
2023-04-26T01:46:35.556Z,7.200
2023-04-26T01:47:34.957Z,7.100
2023-04-26T01:48:35.432Z,7.100
2023-04-26T01:49:35.627Z,7.800
2023-04-26T01:50:34.812Z,7.700
2023-04-26T01:51:34.993Z,7.200
2023-04-26T01:52:35.112Z,7.500
2023-04-26T01:53:35.279Z,8.300
2023-04-26T01:54:35.510Z,7.700
2023-04-26T01:55:35.725Z,7.200
2023-04-26T01:56:34.804Z,7.200
2023-04-26T01:57:35.170Z,7.700
2023-04-26T01:58:35.383Z,7.700
2023-04-26T01:59:35.501Z,8.100
2023-04-26T02:00:35.937Z,7.700
2023-04-26T02:01:35.193Z,8.000
2023-04-26T02:02:35.798Z,7.800
2023-04-26T02:03:35.652Z,8.500
2023-04-26T02:04:35.100Z,8.300
2023-04-26T02:05:35.462Z,8.100
2023-04-26T02:06:35.752Z,8.200
2023-04-26T02:07:34.824Z,8.000
2023-04-26T02:08:34.962Z,7.300
2023-04-26T02:09:35.260Z,7.800
2023-04-26T02:10:35.424Z,7.700
2023-04-26T02:11:35.716Z,8.300
2023-04-26T02:12:34.799Z,8.200
2023-04-26T02:13:35.176Z,7.600
2023-04-26T02:14:35.453Z,8.300
2023-04-26T02:15:35.640Z,7.600
2023-04-26T02:16:35.022Z,7.200
2023-04-26T02:17:35.388Z,7.700
2023-04-26T02:18:35.810Z,7.600
2023-04-26T02:19:35.063Z,8.300
2023-04-26T02:20:35.388Z,7.800
2023-04-26T02:21:35.524Z,8.000
2023-04-26T02:22:35.682Z,7.700
2023-04-26T02:23:35.157Z,8.500
2023-04-26T02:24:35.345Z,8.100
2023-04-26T02:25:35.600Z,7.800
2023-04-26T02:26:35.825Z,8.500
2023-04-26T02:27:35.001Z,8.200
2023-04-26T02:28:35.381Z,8.200
2023-04-26T02:29:45.419Z,8.000
2023-04-26T02:30:35.640Z,8.400
2023-04-26T02:31:37.605Z,8.800
2023-04-26T02:32:34.973Z,8.300
2023-04-26T02:33:35.412Z,8.300
2023-04-26T02:34:35.602Z,8.200
2023-04-26T02:35:36.264Z,8.500
2023-04-26T02:36:35.440Z,8.600
2023-04-26T02:37:35.733Z,7.900
2023-04-26T02:39:35.406Z,7.700
2023-04-26T02:40:35.701Z,8.400
2023-04-26T02:41:35.114Z,8.500
2023-04-26T02:42:35.278Z,7.900
2023-04-26T02:43:35.481Z,8.800
2023-04-26T02:44:35.655Z,8.500
2023-04-26T02:46:35.414Z,7.800
2023-04-26T02:47:35.908Z,8.500
2023-04-26T02:48:35.187Z,8.500
2023-04-26T02:49:35.453Z,8.100
2023-04-26T02:50:35.641Z,7.900
2023-04-26T02:52:34.909Z,8.300
2023-04-26T02:53:35.344Z,8.300
2023-04-26T02:54:35.559Z,8.100
2023-04-26T02:55:35.820Z,8.100
2023-04-26T02:56:35.103Z,8.000
2023-04-26T02:57:35.375Z,8.800
2023-04-26T02:58:35.777Z,8.200
2023-04-26T02:59:35.033Z,7.900
2023-04-26T03:00:35.406Z,8.000
2023-04-26T03:02:35.991Z,8.100
2023-04-26T03:03:35.897Z,8.400
2023-04-26T03:05:34.915Z,8.200
2023-04-26T03:06:35.096Z,8.200
2023-04-26T03:07:35.362Z,7.600
2023-04-26T03:08:35.619Z,8.800
2023-04-26T03:09:34.835Z,8.300
2023-04-26T03:10:34.981Z,7.700
2023-04-26T03:11:35.245Z,8.100
2023-04-26T03:12:35.406Z,8.800
2023-04-26T03:13:35.604Z,8.200
2023-04-26T03:15:35.116Z,8.100
2023-04-26T03:16:35.444Z,8.700
2023-04-26T03:17:34.833Z,8.700
2023-04-26T03:18:35.249Z,7.800
2023-04-26T03:19:35.446Z,8.700
2023-04-26T03:20:34.921Z,9.500
2023-04-26T03:21:35.121Z,8.700
2023-04-26T03:22:35.310Z,9.300
2023-04-26T03:23:35.460Z,8.400
2023-04-26T03:24:35.580Z,9.300
2023-04-26T03:25:35.744Z,9.500
2023-04-26T03:26:34.848Z,8.600
2023-04-26T03:27:35.037Z,8.800
2023-04-26T03:28:35.269Z,8.500
2023-04-26T03:29:35.425Z,9.100
2023-04-26T03:30:35.632Z,9.400
2023-04-26T03:31:36.010Z,8.200
2023-04-26T03:32:35.374Z,8.400
2023-04-26T03:33:35.794Z,8.700
2023-04-26T03:35:35.056Z,8.600
2023-04-26T03:36:35.223Z,9.000
2023-04-26T03:37:35.378Z,8.600
2023-04-26T03:38:35.672Z,8.700
2023-04-26T03:39:34.797Z,8.600
2023-04-26T03:40:35.412Z,8.900
2023-04-26T03:41:35.611Z,7.700
2023-04-26T03:42:35.758Z,8.200
2023-04-26T03:43:34.919Z,8.600
2023-04-26T03:44:35.038Z,9.700
2023-04-26T03:45:35.359Z,9.100
2023-04-26T03:46:35.772Z,7.900
2023-04-26T03:47:34.889Z,8.500
2023-04-26T03:48:35.309Z,8.700
2023-04-26T03:49:35.476Z,8.700
2023-04-26T03:50:35.663Z,8.300
2023-04-26T03:51:34.771Z,8.400
2023-04-26T03:52:34.933Z,9.500
2023-04-26T03:53:35.061Z,9.700
2023-04-26T03:54:35.217Z,9.700
2023-04-26T03:55:35.411Z,9.800
2023-04-26T03:56:35.520Z,9.500
2023-04-26T03:57:35.760Z,9.400
2023-04-26T03:58:34.952Z,10.000
2023-04-26T03:59:35.141Z,9.500
2023-04-26T04:00:35.377Z,9.600
2023-04-26T04:01:35.553Z,9.500
2023-04-26T04:02:34.971Z,9.800
2023-04-26T04:03:37.846Z,10.500
2023-04-26T04:04:36.325Z,9.500
2023-04-26T04:05:35.889Z,8.500
2023-04-26T04:06:35.552Z,9.000
2023-04-26T04:07:35.718Z,8.500
2023-04-26T04:08:34.836Z,8.500
2023-04-26T04:09:34.960Z,9.300
2023-04-26T04:10:35.149Z,10.000
2023-04-26T04:11:35.377Z,9.100
2023-04-26T04:12:35.513Z,9.800
2023-04-26T04:13:35.805Z,10.600
2023-04-26T04:14:34.891Z,10.200
2023-04-26T04:15:35.043Z,9.800
2023-04-26T04:16:35.760Z,10.100
2023-04-26T04:17:35.986Z,9.600
2023-04-26T04:18:34.951Z,9.400
2023-04-26T04:19:35.104Z,9.700
2023-04-26T04:20:35.280Z,10.200
2023-04-26T04:21:35.496Z,10.500
2023-04-26T04:22:35.688Z,10.500
2023-04-26T04:25:35.154Z,10.800
2023-04-26T04:26:35.387Z,10.300
2023-04-26T04:27:35.701Z,10.400
2023-04-26T04:30:35.165Z,9.700
2023-04-26T04:31:35.515Z,9.700
2023-04-26T04:32:35.195Z,9.700
2023-04-26T04:33:35.489Z,10.800
2023-04-26T04:34:35.669Z,10.900
2023-04-26T04:35:34.830Z,9.600
2023-04-26T04:36:35.212Z,9.900
2023-04-26T04:37:35.294Z,10.500
2023-04-26T04:38:35.397Z,9.500
2023-04-26T04:39:35.604Z,10.100
2023-04-26T04:40:35.724Z,10.300
2023-04-26T04:41:34.845Z,8.600
2023-04-26T04:42:34.992Z,9.200
2023-04-26T04:43:35.292Z,9.700
2023-04-26T04:44:35.425Z,9.300
2023-04-26T04:45:35.699Z,10.400
2023-04-26T04:46:34.932Z,9.300
2023-04-26T04:47:35.314Z,9.000
2023-04-26T04:48:35.587Z,9.300
2023-04-26T04:49:35.748Z,9.300
2023-04-26T04:51:35.422Z,9.100
2023-04-26T04:52:35.510Z,9.300
2023-04-26T04:53:35.620Z,7.700
2023-04-26T04:54:35.969Z,9.000
2023-04-26T04:55:35.131Z,8.500
2023-04-26T04:56:35.388Z,7.900
2023-04-26T04:57:35.586Z,8.500
2023-04-26T04:58:35.782Z,8.300
2023-04-26T04:59:34.922Z,8.100
2023-04-26T05:00:35.068Z,7.500
2023-04-26T05:01:35.676Z,7.900
2023-04-26T05:03:35.361Z,8.300
2023-04-26T05:04:35.494Z,9.200
2023-04-26T05:05:35.338Z,8.300
2023-04-26T05:06:35.457Z,8.600
2023-04-26T05:07:37.100Z,8.600
2023-04-26T05:08:35.217Z,8.300
2023-04-26T05:09:35.396Z,8.300
2023-04-26T05:10:35.603Z,7.500
2023-04-26T05:11:34.742Z,7.800
2023-04-26T05:12:35.080Z,8.600
2023-04-26T05:13:35.315Z,8.700
2023-04-26T05:14:35.526Z,7.500
2023-04-26T05:15:35.722Z,7.600
2023-04-26T05:16:34.894Z,8.600
2023-04-26T05:17:35.356Z,8.100
2023-04-26T05:18:34.754Z,7.800
2023-04-26T05:19:34.970Z,8.300
2023-04-26T05:20:35.159Z,8.100
2023-04-26T05:21:35.293Z,8.700
2023-04-26T05:22:35.414Z,7.500
2023-04-26T05:23:35.776Z,7.300
2023-04-26T05:24:34.848Z,7.100
2023-04-26T05:25:37.956Z,7.200
2023-04-26T05:26:35.122Z,7.800
2023-04-26T05:27:35.251Z,6.800
2023-04-26T05:28:35.448Z,7.100
2023-04-26T05:29:35.556Z,7.400
2023-04-26T05:30:35.792Z,7.800
2023-04-26T05:31:35.014Z,7.000
2023-04-26T05:32:35.604Z,8.400
2023-04-26T05:33:34.990Z,7.900
2023-04-26T05:34:35.208Z,7.500
2023-04-26T05:35:35.542Z,8.600
2023-04-26T05:36:35.860Z,8.600
2023-04-26T05:37:34.972Z,7.500
2023-04-26T05:38:35.139Z,7.300
2023-04-26T05:39:35.349Z,6.800
2023-04-26T05:40:35.526Z,7.500
2023-04-26T05:41:35.753Z,7.100
2023-04-26T05:42:35.148Z,7.700
2023-04-26T05:43:35.340Z,7.400
2023-04-26T05:44:35.492Z,8.100
2023-04-26T05:45:35.663Z,6.700
2023-04-26T05:46:35.217Z,6.900
2023-04-26T05:47:35.622Z,6.900
2023-04-26T05:48:34.982Z,6.900
2023-04-26T05:49:35.143Z,7.300
2023-04-26T05:50:35.334Z,6.600
2023-04-26T05:51:35.235Z,6.400
2023-04-26T05:52:35.404Z,6.900
2023-04-26T05:53:35.660Z,7.300
2023-04-26T05:54:34.765Z,7.200
2023-04-26T05:55:34.940Z,6.700
2023-04-26T05:56:35.168Z,6.800
2023-04-26T05:57:35.480Z,7.100
2023-04-26T05:59:35.127Z,6.900
2023-04-26T06:00:35.404Z,6.800
2023-04-26T06:01:35.629Z,6.500
2023-04-26T06:02:36.177Z,6.800
2023-04-26T06:03:36.136Z,6.400
2023-04-26T06:04:36.227Z,6.300
2023-04-26T06:05:36.482Z,6.400
2023-04-26T06:06:34.979Z,6.600
2023-04-26T06:07:35.161Z,6.500
2023-04-26T06:08:35.304Z,6.500
2023-04-26T06:09:35.966Z,5.800
2023-04-26T06:10:35.284Z,6.700
2023-04-26T06:11:35.492Z,6.000
2023-04-26T06:12:35.675Z,6.300
2023-04-26T06:14:44.703Z,6.400
2023-04-26T06:15:35.360Z,6.000
2023-04-26T06:16:35.672Z,6.000
2023-04-26T06:17:35.295Z,5.900
2023-04-26T06:18:35.563Z,6.200
2023-04-26T06:19:34.915Z,5.900
2023-04-26T06:20:35.154Z,6.400
2023-04-26T06:21:35.360Z,5.700
2023-04-26T06:22:35.581Z,5.900
2023-04-26T06:23:36.158Z,6.300
2023-04-26T06:24:35.324Z,5.700
2023-04-26T06:25:35.449Z,5.600
2023-04-26T06:26:36.073Z,5.100
2023-04-26T06:27:35.220Z,6.000
2023-04-26T06:28:35.640Z,4.900
2023-04-26T06:29:35.692Z,5.600
2023-04-26T06:30:34.899Z,5.500
2023-04-26T06:31:35.394Z,5.400
2023-04-26T06:32:34.820Z,4.900
2023-04-26T06:33:35.237Z,5.200
2023-04-26T06:34:35.464Z,5.900
2023-04-26T06:35:35.682Z,5.400
2023-04-26T06:36:34.810Z,4.900
2023-04-26T06:37:35.446Z,5.200
2023-04-26T06:38:35.633Z,5.200
2023-04-26T06:39:35.780Z,5.700
2023-04-26T06:40:35.064Z,5.100
2023-04-26T06:41:35.543Z,4.600
2023-04-26T06:42:35.938Z,4.500
2023-04-26T06:44:35.426Z,4.300
2023-04-26T06:45:35.672Z,4.700
2023-04-26T06:46:35.750Z,4.700
2023-04-26T06:47:35.178Z,4.300
2023-04-26T06:48:35.576Z,4.500
2023-04-26T06:49:35.739Z,4.700
2023-04-26T06:50:34.947Z,4.500
2023-04-26T06:51:35.402Z,5.000
2023-04-26T06:52:37.284Z,4.400
2023-04-26T06:53:38.574Z,4.600
2023-04-26T06:54:37.844Z,4.500
2023-04-26T06:56:38.009Z,4.400
2023-04-26T06:57:38.353Z,4.500
2023-04-26T06:58:38.533Z,4.200
2023-04-26T06:59:38.755Z,3.700
2023-04-26T07:00:37.998Z,4.100
2023-04-26T07:01:38.316Z,4.100
2023-04-26T07:02:39.606Z,4.500
2023-04-26T07:03:38.687Z,4.100
2023-04-26T07:05:39.270Z,3.600
2023-04-26T07:06:38.643Z,4.100
2023-04-26T07:07:38.074Z,3.900
2023-04-26T07:08:38.262Z,3.600
2023-04-26T07:09:38.513Z,4.100
2023-04-26T07:10:38.803Z,3.800
2023-04-26T07:11:40.641Z,3.600
2023-04-26T07:12:37.797Z,3.800
2023-04-26T07:13:40.273Z,3.900
2023-04-26T07:14:39.514Z,3.200
2023-04-26T07:15:38.835Z,4.000
2023-04-26T07:17:38.682Z,3.800
2023-04-26T07:18:37.867Z,4.000
2023-04-26T07:19:38.046Z,3.700
2023-04-26T07:20:38.479Z,4.000
2023-04-26T07:21:38.763Z,3.300
2023-04-26T07:22:38.048Z,3.500
2023-04-26T07:23:38.396Z,3.300
2023-04-26T07:24:38.628Z,3.200
2023-04-26T07:25:38.834Z,3.500
2023-04-26T07:26:38.042Z,3.900
2023-04-26T07:27:38.265Z,3.300
2023-04-26T07:28:38.494Z,3.700
2023-04-26T07:29:38.863Z,3.400
2023-04-26T07:30:38.093Z,2.900
2023-04-26T07:31:41.549Z,3.000
2023-04-26T07:32:38.884Z,3.100
2023-04-26T07:33:39.089Z,2.800
2023-04-26T07:34:38.794Z,3.100
2023-04-26T07:36:40.701Z,2.900
2023-04-26T07:38:38.381Z,2.500
2023-04-26T07:39:38.640Z,3.000
2023-04-26T07:40:37.827Z,2.900
2023-04-26T07:41:38.088Z,3.000
2023-04-26T07:42:38.525Z,2.500
2023-04-26T07:43:39.096Z,2.600
2023-04-26T07:45:38.702Z,2.900
2023-04-26T07:46:38.271Z,3.200
2023-04-26T07:47:38.675Z,2.600
2023-04-26T07:48:38.296Z,2.800
2023-04-26T07:49:38.621Z,2.400
2023-04-26T07:50:38.942Z,2.600
2023-04-26T07:51:38.324Z,2.500
2023-04-26T07:52:38.554Z,2.600
2023-04-26T07:53:38.884Z,2.500
2023-04-26T07:54:38.354Z,2.200
2023-04-26T07:55:38.618Z,2.400
2023-04-26T07:56:38.864Z,2.300
2023-04-26T07:57:38.233Z,2.700
2023-04-26T07:58:38.501Z,2.800
2023-04-26T07:59:38.796Z,2.600
2023-04-26T08:00:38.199Z,2.800
2023-04-26T08:01:39.044Z,2.700
2023-04-26T08:02:44.829Z,2.600
2023-04-26T08:04:38.919Z,2.600
2023-04-26T08:05:40.192Z,2.600
2023-04-26T08:06:38.643Z,2.600
2023-04-26T08:07:38.759Z,2.800
2023-04-26T08:08:38.016Z,2.800
2023-04-26T08:09:39.543Z,2.900
2023-04-26T08:10:38.811Z,2.900
2023-04-26T08:11:38.187Z,3.000
2023-04-26T08:12:38.708Z,2.800
2023-04-26T08:13:37.984Z,2.700
2023-04-26T08:14:38.172Z,2.900
2023-04-26T08:15:38.611Z,2.600
2023-04-26T08:16:37.978Z,2.700
2023-04-26T08:17:38.685Z,3.000
2023-04-26T08:18:38.442Z,2.700
2023-04-26T08:19:38.379Z,2.900
2023-04-26T08:20:38.792Z,3.200
2023-04-26T08:21:38.089Z,3.100
2023-04-26T08:22:38.445Z,2.800
2023-04-26T08:23:38.813Z,3.300
2023-04-26T08:24:38.051Z,3.000
2023-04-26T08:25:38.424Z,3.600
2023-04-26T08:26:38.936Z,3.300
2023-04-26T08:27:38.156Z,3.000
2023-04-26T08:28:38.573Z,2.800
2023-04-26T08:29:38.117Z,3.200
2023-04-26T08:30:38.549Z,3.300
2023-04-26T08:32:38.541Z,3.100
2023-04-26T08:33:38.165Z,3.000
2023-04-26T08:34:38.336Z,2.800
2023-04-26T08:35:38.666Z,2.900
2023-04-26T08:37:38.163Z,2.500
2023-04-26T08:38:38.579Z,2.600
2023-04-26T08:39:38.852Z,3.100
2023-04-26T08:40:38.437Z,2.800
2023-04-26T08:41:38.668Z,2.800
2023-04-26T08:42:38.015Z,2.700
2023-04-26T08:43:38.207Z,2.700
2023-04-26T08:44:38.537Z,2.900
2023-04-26T08:45:38.042Z,2.500
2023-04-26T08:46:38.425Z,3.000
2023-04-26T08:47:38.814Z,2.700
2023-04-26T08:48:38.235Z,3.000
2023-04-26T08:49:38.704Z,3.300
2023-04-26T08:50:38.031Z,3.100
2023-04-26T08:51:38.285Z,3.000
2023-04-26T08:52:38.570Z,3.100
2023-04-26T08:53:37.817Z,2.800
2023-04-26T08:54:38.029Z,3.100
2023-04-26T08:55:38.313Z,3.100
2023-04-26T08:56:38.592Z,3.000
2023-04-26T08:57:38.876Z,3.700
2023-04-26T08:58:38.037Z,3.200
2023-04-26T08:59:38.271Z,3.400
2023-04-26T09:00:38.644Z,3.300
2023-04-26T09:02:39.080Z,3.300
2023-04-26T09:03:39.873Z,2.600
2023-04-26T09:04:39.478Z,3.000
2023-04-26T09:05:38.706Z,3.200
2023-04-26T09:06:39.220Z,3.100
2023-04-26T09:07:38.404Z,3.700
2023-04-26T09:08:38.642Z,3.200
2023-04-26T09:09:37.774Z,3.400
2023-04-26T09:10:38.473Z,3.700
2023-04-26T09:11:38.747Z,3.000
2023-04-26T09:12:37.939Z,3.600
2023-04-26T09:13:38.332Z,3.200
2023-04-26T09:14:38.596Z,3.200
2023-04-26T09:15:37.823Z,4.000
2023-04-26T09:16:38.693Z,3.500
2023-04-26T09:17:38.349Z,3.600
2023-04-26T09:18:37.989Z,3.700
2023-04-26T09:19:38.244Z,3.200
2023-04-26T09:20:41.014Z,3.500
2023-04-26T09:21:38.168Z,3.100
2023-04-26T09:22:38.576Z,3.500
2023-04-26T09:25:40.104Z,3.300
2023-04-26T09:26:38.359Z,3.500
2023-04-26T09:27:38.525Z,3.500
2023-04-26T09:28:38.685Z,3.400
2023-04-26T09:29:37.849Z,3.300
2023-04-26T09:30:38.135Z,3.500
2023-04-26T09:31:38.632Z,3.800
2023-04-26T09:33:38.543Z,3.200
2023-04-26T09:34:38.788Z,2.700
2023-04-26T09:35:38.027Z,3.000
2023-04-26T09:36:38.437Z,3.100
2023-04-26T09:37:47.407Z,2.900
2023-04-26T09:39:41.596Z,2.600
2023-04-26T09:40:41.782Z,2.800
2023-04-26T09:41:41.000Z,2.900
2023-04-26T09:42:41.327Z,2.900
2023-04-26T09:43:41.521Z,3.200
2023-04-26T09:44:41.813Z,2.800
2023-04-26T09:45:41.100Z,3.500
2023-04-26T09:46:41.553Z,2.800
2023-04-26T09:47:41.035Z,3.000
2023-04-26T09:48:41.446Z,3.100
2023-04-26T09:49:41.236Z,3.100
2023-04-26T09:50:41.601Z,3.400
2023-04-26T09:51:41.888Z,2.700
2023-04-26T09:52:41.177Z,3.300
2023-04-26T09:53:41.493Z,3.400
2023-04-26T09:54:40.918Z,3.200
2023-04-26T09:55:46.076Z,2.900
2023-04-26T09:57:41.537Z,2.900
2023-04-26T09:58:41.712Z,3.000
2023-04-26T09:59:40.826Z,2.700
2023-04-26T10:00:41.104Z,3.400
2023-04-26T10:01:41.949Z,3.000
2023-04-26T10:02:41.402Z,3.100
2023-04-26T10:03:42.293Z,3.200
2023-04-26T10:04:41.342Z,2.800
2023-04-26T10:05:41.682Z,3.000
2023-04-26T10:06:40.837Z,2.800
2023-04-26T10:07:41.100Z,3.100
2023-04-26T10:08:41.390Z,2.800
2023-04-26T10:09:41.595Z,3.400
2023-04-26T10:10:41.823Z,3.200
2023-04-26T10:11:40.981Z,3.300
2023-04-26T10:12:41.149Z,3.100
2023-04-26T10:13:41.335Z,3.300
2023-04-26T10:14:41.555Z,3.000
2023-04-26T10:15:41.769Z,3.100
2023-04-26T10:16:40.980Z,3.000
2023-04-26T10:17:41.500Z,3.300
2023-04-26T10:19:41.655Z,3.200
2023-04-26T10:20:40.861Z,3.600
2023-04-26T10:21:41.061Z,3.300
2023-04-26T10:22:41.307Z,3.300
2023-04-26T10:23:41.600Z,3.400
2023-04-26T10:24:41.785Z,3.400
2023-04-26T10:25:41.213Z,3.400
2023-04-26T10:26:41.363Z,3.000
2023-04-26T10:27:41.834Z,3.400
2023-04-26T10:29:41.528Z,3.300
2023-04-26T10:30:41.624Z,3.200
2023-04-26T10:31:40.947Z,3.000
2023-04-26T10:32:41.213Z,2.800
2023-04-26T10:33:41.659Z,3.100
2023-04-26T10:35:41.179Z,3.400
2023-04-26T10:36:41.364Z,3.100
2023-04-26T10:37:41.735Z,3.300
2023-04-26T10:39:41.180Z,2.900
2023-04-26T10:40:41.521Z,3.200
2023-04-26T10:41:41.706Z,2.900
2023-04-26T10:42:42.238Z,2.800
2023-04-26T10:44:41.185Z,3.200
2023-04-26T10:45:41.730Z,3.000
2023-04-26T10:46:41.296Z,2.900
2023-04-26T10:47:41.990Z,2.500
2023-04-26T10:48:41.406Z,2.600
2023-04-26T10:49:42.489Z,2.900
2023-04-26T10:50:41.588Z,3.000
2023-04-26T10:51:41.815Z,2.400
2023-04-26T10:54:41.672Z,3.200
2023-04-26T10:55:41.200Z,2.900
2023-04-26T10:56:41.643Z,2.900
2023-04-26T10:57:41.905Z,3.200
2023-04-26T10:59:55.960Z,3.100
2023-04-26T11:01:44.535Z,3.100
2023-04-26T11:02:44.131Z,3.000
2023-04-26T11:03:44.895Z,2.600
2023-04-26T11:04:44.044Z,2.900
2023-04-26T11:05:44.378Z,3.200
2023-04-26T11:06:44.645Z,2.800
2023-04-26T11:07:43.840Z,2.800
2023-04-26T11:08:44.001Z,3.400
2023-04-26T11:09:44.222Z,2.700
2023-04-26T11:10:44.635Z,2.900
2023-04-26T11:11:43.805Z,3.200
2023-04-26T11:12:44.118Z,2.500
2023-04-26T11:13:44.419Z,3.100
2023-04-26T11:14:44.868Z,3.500
2023-04-26T11:15:44.086Z,3.200
2023-04-26T11:16:44.582Z,2.900
2023-04-26T11:17:43.923Z,3.000
2023-04-26T11:18:44.204Z,2.900
2023-04-26T11:19:44.600Z,3.100
2023-04-26T11:20:45.090Z,2.800
2023-04-26T11:21:44.288Z,2.900
2023-04-26T11:22:44.571Z,3.000
2023-04-26T11:23:44.815Z,2.900
2023-04-26T11:24:44.244Z,2.600
2023-04-26T11:25:44.471Z,2.800
2023-04-26T11:26:43.800Z,3.100
2023-04-26T11:27:44.043Z,3.200
2023-04-26T11:28:45.895Z,3.200
2023-04-26T11:29:44.087Z,3.300
2023-04-26T11:30:44.306Z,3.000
2023-04-26T11:31:44.675Z,3.000
2023-04-26T11:32:44.264Z,2.900
2023-04-26T11:33:44.659Z,3.100
2023-04-26T11:34:44.205Z,3.300
2023-04-26T11:35:44.454Z,3.500
2023-04-26T11:36:44.707Z,3.200
2023-04-26T11:37:43.997Z,3.000
2023-04-26T11:38:44.091Z,3.100
2023-04-26T11:39:47.302Z,3.200
2023-04-26T11:40:44.628Z,3.100
2023-04-26T11:41:44.863Z,3.500
2023-04-26T11:44:45.140Z,3.700
2023-04-26T11:45:44.698Z,4.000
2023-04-26T11:47:44.274Z,3.900
2023-04-26T11:48:44.716Z,4.000
2023-04-26T11:49:43.872Z,4.100
2023-04-26T11:50:44.218Z,3.700
2023-04-26T11:51:46.471Z,3.800
2023-04-26T11:52:44.701Z,3.600
2023-04-26T11:54:44.005Z,3.400
2023-04-26T11:55:44.209Z,3.300
2023-04-26T11:56:44.360Z,3.500
2023-04-26T11:57:44.581Z,4.100
2023-04-26T11:58:44.830Z,4.000
2023-04-26T12:00:44.732Z,3.600
2023-04-26T12:01:43.994Z,3.900
2023-04-26T12:02:44.824Z,4.000
2023-04-26T12:03:45.390Z,4.100
2023-04-26T12:04:46.636Z,3.600
2023-04-26T12:05:45.238Z,3.600
2023-04-26T12:08:44.820Z,4.300
2023-04-26T12:10:44.540Z,3.500
2023-04-26T12:11:44.767Z,3.800
2023-04-26T12:12:44.028Z,3.700
2023-04-26T12:13:44.221Z,3.900
2023-04-26T12:14:44.459Z,4.100
2023-04-26T12:15:46.308Z,4.100
2023-04-26T12:16:44.507Z,4.200
2023-04-26T12:17:44.577Z,3.600
2023-04-26T12:18:43.933Z,3.900
2023-04-26T12:19:44.214Z,3.900
2023-04-26T12:20:44.488Z,4.000
2023-04-26T12:21:46.648Z,4.100
2023-04-26T12:22:44.906Z,4.100
2023-04-26T12:24:44.535Z,3.900
2023-04-26T12:26:44.433Z,4.700
2023-04-26T12:27:44.735Z,4.200
2023-04-26T12:28:44.003Z,4.600
2023-04-26T12:29:44.269Z,4.800
2023-04-26T12:30:44.636Z,4.800
2023-04-26T12:31:45.092Z,4.600
2023-04-26T12:32:44.781Z,4.800
2023-04-26T12:33:49.308Z,4.600
2023-04-26T12:34:44.537Z,4.300
2023-04-26T12:35:44.812Z,4.200
2023-04-26T12:36:44.072Z,4.400
2023-04-26T12:37:44.519Z,4.500
2023-04-26T12:38:45.105Z,4.100
2023-04-26T12:39:44.401Z,3.900
2023-04-26T12:40:45.682Z,4.300
2023-04-26T12:41:43.852Z,4.300
2023-04-26T12:42:44.116Z,4.000
2023-04-26T12:43:44.500Z,4.500
2023-04-26T12:44:45.105Z,4.100
2023-04-26T12:45:44.451Z,4.200
2023-04-26T12:46:45.131Z,3.600
2023-04-26T12:47:44.742Z,3.900
2023-04-26T12:50:44.042Z,4.000
2023-04-26T12:51:44.261Z,3.900
2023-04-26T12:52:44.484Z,4.200
2023-04-26T12:53:43.964Z,4.400
2023-04-26T12:54:44.212Z,4.700
2023-04-26T12:55:47.353Z,4.400
2023-04-26T12:56:44.774Z,4.500
2023-04-26T12:58:44.432Z,4.400
2023-04-26T12:59:44.635Z,4.300
2023-04-26T13:00:44.685Z,4.400
2023-04-26T13:01:44.149Z,4.300
2023-04-26T13:02:44.915Z,4.300
2023-04-26T13:03:44.875Z,4.000
2023-04-26T13:04:45.643Z,4.800
2023-04-26T13:06:44.605Z,4.100
2023-04-26T13:07:43.808Z,4.200
2023-04-26T13:08:44.069Z,4.300
2023-04-26T13:09:44.608Z,4.200
2023-04-26T13:10:46.296Z,4.300
2023-04-26T13:11:44.481Z,4.700
2023-04-26T13:12:44.688Z,4.900
2023-04-26T13:13:53.860Z,4.800
2023-04-26T13:14:44.412Z,4.400
2023-04-26T13:15:44.603Z,5.100
2023-04-26T13:16:46.012Z,4.900
2023-04-26T13:17:44.168Z,4.600
2023-04-26T13:18:45.059Z,4.500
2023-04-26T13:20:46.658Z,4.800
2023-04-26T13:21:44.156Z,4.500
2023-04-26T13:22:44.346Z,4.300
2023-04-26T13:23:44.923Z,4.200
2023-04-26T13:25:44.867Z,4.500
2023-04-26T13:26:44.119Z,4.000
2023-04-26T13:27:47.318Z,4.200
2023-04-26T13:28:44.873Z,4.400
2023-04-26T13:29:44.020Z,4.500
2023-04-26T13:30:44.283Z,3.800
2023-04-26T13:31:44.692Z,4.700
2023-04-26T13:33:44.741Z,4.100
2023-04-26T13:34:43.993Z,4.200
2023-04-26T13:35:44.297Z,4.200
2023-04-26T13:36:44.688Z,4.600
2023-04-26T13:38:47.017Z,4.400
2023-04-26T13:39:44.185Z,4.800
2023-04-26T13:40:44.481Z,4.700
2023-04-26T13:41:46.208Z,4.300
2023-04-26T13:42:44.338Z,4.600
2023-04-26T13:43:44.458Z,4.100
2023-04-26T13:44:44.778Z,4.300
2023-04-26T13:46:43.920Z,4.200
2023-04-26T13:47:44.419Z,4.500
2023-04-26T13:48:44.923Z,4.500
2023-04-26T13:50:44.374Z,4.600
2023-04-26T13:51:44.546Z,4.800
2023-04-26T13:52:45.480Z,4.400
2023-04-26T13:53:45.293Z,4.200
2023-04-26T13:54:44.791Z,4.600
2023-04-26T13:56:45.209Z,4.100